sensor_id;sensor_type;location;lat;lon;timestamp;P1;durP1;ratioP1;P2;durP2;ratioP2
29026;SDS011;16120;48.608;9.092;2023-07-22T00:02:58;108.10;;;7.80;;
29026;SDS011;16120;48.608;9.092;2023-07-22T00:06:53;108.67;;;7.40;;
29026;SDS011;16120;48.608;9.092;2023-07-22T00:10:48;108.93;;;8.00;;
29026;SDS011;16120;48.608;9.092;2023-07-22T00:14:45;108.97;;;7.47;;
29026;SDS011;16120;48.608;9.092;2023-07-22T00:18:41;108.90;;;7.53;;
29026;SDS011;16120;48.608;9.092;2023-07-22T00:22:36;108.20;;;7.43;;
29026;SDS011;16120;48.608;9.092;2023-07-22T00:26:31;109.57;;;8.00;;
29026;SDS011;16120;48.608;9.092;2023-07-22T00:30:28;108.87;;;7.27;;
29026;SDS011;16120;48.608;9.092;2023-07-22T00:34:23;109.17;;;7.80;;
29026;SDS011;16120;48.608;9.092;2023-07-22T00:38:18;108.67;;;8.07;;
29026;SDS011;16120;48.608;9.092;2023-07-22T00:42:13;109.18;;;8.00;;
29026;SDS011;16120;48.608;9.092;2023-07-22T00:46:10;109.50;;;7.67;;
29026;SDS011;16120;48.608;9.092;2023-07-22T00:50:06;109.63;;;7.77;;
29026;SDS011;16120;48.608;9.092;2023-07-22T00:54:02;108.67;;;7.90;;
29026;SDS011;16120;48.608;9.092;2023-07-22T00:57:57;108.77;;;7.80;;
29026;SDS011;16120;48.608;9.092;2023-07-22T01:01:54;108.90;;;7.93;;
29026;SDS011;16120;48.608;9.092;2023-07-22T01:05:49;108.67;;;7.57;;
29026;SDS011;16120;48.608;9.092;2023-07-22T01:09:44;108.97;;;7.73;;
29026;SDS011;16120;48.608;9.092;2023-07-22T01:13:39;108.67;;;7.60;;
29026;SDS011;16120;48.608;9.092;2023-07-22T01:17:36;108.50;;;8.20;;
29026;SDS011;16120;48.608;9.092;2023-07-22T01:21:32;108.63;;;7.97;;
29026;SDS011;16120;48.608;9.092;2023-07-22T01:25:28;109.07;;;7.63;;
29026;SDS011;16120;48.608;9.092;2023-07-22T01:29:24;108.93;;;7.80;;
29026;SDS011;16120;48.608;9.092;2023-07-22T01:33:19;108.27;;;7.60;;
29026;SDS011;16120;48.608;9.092;2023-07-22T01:37:14;108.50;;;7.53;;
29026;SDS011;16120;48.608;9.092;2023-07-22T01:41:11;108.80;;;7.37;;
29026;SDS011;16120;48.608;9.092;2023-07-22T01:45:06;107.77;;;7.57;;
29026;SDS011;16120;48.608;9.092;2023-07-22T01:49:03;109.17;;;7.73;;
29026;SDS011;16120;48.608;9.092;2023-07-22T01:52:58;108.80;;;7.67;;
29026;SDS011;16120;48.608;9.092;2023-07-22T01:56:55;108.57;;;7.73;;
29026;SDS011;16120;48.608;9.092;2023-07-22T02:00:50;109.00;;;7.77;;
29026;SDS011;16120;48.608;9.092;2023-07-22T02:04:45;108.90;;;7.57;;
29026;SDS011;16120;48.608;9.092;2023-07-22T02:08:40;109.63;;;7.70;;
29026;SDS011;16120;48.608;9.092;2023-07-22T02:12:37;108.82;;;7.95;;
29026;SDS011;16120;48.608;9.092;2023-07-22T02:16:32;108.93;;;7.83;;
29026;SDS011;16120;48.608;9.092;2023-07-22T02:20:27;109.67;;;7.77;;
29026;SDS011;16120;48.608;9.092;2023-07-22T02:24:23;109.97;;;7.87;;
29026;SDS011;16120;48.608;9.092;2023-07-22T02:28:19;109.50;;;7.80;;
29026;SDS011;16120;48.608;9.092;2023-07-22T02:32:14;109.67;;;7.87;;
29026;SDS011;16120;48.608;9.092;2023-07-22T02:36:10;109.27;;;7.90;;
29026;SDS011;16120;48.608;9.092;2023-07-22T02:40:05;109.60;;;7.87;;
29026;SDS011;16120;48.608;9.092;2023-07-22T02:44:02;109.20;;;7.90;;
29026;SDS011;16120;48.608;9.092;2023-07-22T02:47:57;108.70;;;7.90;;
29026;SDS011;16120;48.608;9.092;2023-07-22T02:51:52;108.80;;;7.67;;
29026;SDS011;16120;48.608;9.092;2023-07-22T02:55:48;109.37;;;7.93;;
29026;SDS011;16120;48.608;9.092;2023-07-22T02:59:44;108.90;;;7.78;;
29026;SDS011;16120;48.608;9.092;2023-07-22T03:03:39;109.07;;;7.73;;
29026;SDS011;16120;48.608;9.092;2023-07-22T03:07:35;109.07;;;7.73;;
29026;SDS011;16120;48.608;9.092;2023-07-22T03:11:30;108.83;;;7.63;;
29026;SDS011;16120;48.608;9.092;2023-07-22T03:15:27;108.00;;;7.77;;
29026;SDS011;16120;48.608;9.092;2023-07-22T03:19:22;109.30;;;7.67;;
29026;SDS011;16120;48.608;9.092;2023-07-22T03:23:17;109.53;;;8.23;;
29026;SDS011;16120;48.608;9.092;2023-07-22T03:27:13;108.87;;;7.87;;
29026;SDS011;16120;48.608;9.092;2023-07-22T03:31:10;109.27;;;7.87;;
29026;SDS011;16120;48.608;9.092;2023-07-22T03:35:05;108.97;;;7.73;;
29026;SDS011;16120;48.608;9.092;2023-07-22T03:39:01;109.03;;;7.80;;
29026;SDS011;16120;48.608;9.092;2023-07-22T03:42:56;109.07;;;8.03;;
29026;SDS011;16120;48.608;9.092;2023-07-22T03:46:53;108.90;;;7.90;;
29026;SDS011;16120;48.608;9.092;2023-07-22T03:50:48;109.10;;;7.67;;
29026;SDS011;16120;48.608;9.092;2023-07-22T03:54:43;108.87;;;7.83;;
29026;SDS011;16120;48.608;9.092;2023-07-22T03:58:39;108.87;;;7.80;;
29026;SDS011;16120;48.608;9.092;2023-07-22T04:02:35;108.50;;;7.63;;
29026;SDS011;16120;48.608;9.092;2023-07-22T04:06:30;109.10;;;8.57;;
29026;SDS011;16120;48.608;9.092;2023-07-22T04:10:26;109.37;;;7.87;;
29026;SDS011;16120;48.608;9.092;2023-07-22T04:14:21;108.80;;;7.65;;
29026;SDS011;16120;48.608;9.092;2023-07-22T04:18:18;109.47;;;7.93;;
29026;SDS011;16120;48.608;9.092;2023-07-22T04:22:13;109.20;;;8.00;;
29026;SDS011;16120;48.608;9.092;2023-07-22T04:26:09;109.20;;;7.68;;
29026;SDS011;16120;48.608;9.092;2023-07-22T04:30:04;108.97;;;7.37;;
29026;SDS011;16120;48.608;9.092;2023-07-22T04:34:01;108.90;;;7.40;;
29026;SDS011;16120;48.608;9.092;2023-07-22T04:37:56;109.20;;;7.57;;
29026;SDS011;16120;48.608;9.092;2023-07-22T04:41:51;109.17;;;7.80;;
29026;SDS011;16120;48.608;9.092;2023-07-22T04:45:46;109.07;;;7.47;;
29026;SDS011;16120;48.608;9.092;2023-07-22T04:49:43;108.60;;;8.00;;
29026;SDS011;16120;48.608;9.092;2023-07-22T04:53:38;108.80;;;7.73;;
29026;SDS011;16120;48.608;9.092;2023-07-22T04:57:34;109.07;;;7.90;;
29026;SDS011;16120;48.608;9.092;2023-07-22T05:01:29;108.77;;;7.57;;
29026;SDS011;16120;48.608;9.092;2023-07-22T05:05:25;108.50;;;7.80;;
29026;SDS011;16120;48.608;9.092;2023-07-22T05:09:20;108.57;;;7.80;;
29026;SDS011;16120;48.608;9.092;2023-07-22T05:13:16;108.70;;;8.30;;
29026;SDS011;16120;48.608;9.092;2023-07-22T05:17:11;108.27;;;7.97;;
29026;SDS011;16120;48.608;9.092;2023-07-22T05:21:07;108.37;;;8.03;;
29026;SDS011;16120;48.608;9.092;2023-07-22T05:25:03;108.17;;;7.90;;
29026;SDS011;16120;48.608;9.092;2023-07-22T05:28:58;107.70;;;7.93;;
29026;SDS011;16120;48.608;9.092;2023-07-22T05:32:54;107.50;;;7.70;;
29026;SDS011;16120;48.608;9.092;2023-07-22T05:36:50;107.47;;;7.67;;
29026;SDS011;16120;48.608;9.092;2023-07-22T05:40:45;107.53;;;7.83;;
29026;SDS011;16120;48.608;9.092;2023-07-22T05:44:40;106.80;;;7.87;;
29026;SDS011;16120;48.608;9.092;2023-07-22T05:48:36;106.60;;;7.50;;
29026;SDS011;16120;48.608;9.092;2023-07-22T05:52:32;106.43;;;7.70;;
29026;SDS011;16120;48.608;9.092;2023-07-22T05:56:27;105.57;;;7.33;;
29026;SDS011;16120;48.608;9.092;2023-07-22T06:00:23;105.90;;;8.10;;
29026;SDS011;16120;48.608;9.092;2023-07-22T06:04:18;105.80;;;7.90;;
29026;SDS011;16120;48.608;9.092;2023-07-22T06:08:14;104.80;;;7.97;;
29026;SDS011;16120;48.608;9.092;2023-07-22T06:12:10;105.17;;;8.17;;
29026;SDS011;16120;48.608;9.092;2023-07-22T06:16:05;104.67;;;7.63;;
29026;SDS011;16120;48.608;9.092;2023-07-22T06:20:00;105.07;;;7.63;;
29026;SDS011;16120;48.608;9.092;2023-07-22T06:23:57;104.37;;;7.77;;
29026;SDS011;16120;48.608;9.092;2023-07-22T06:27:53;104.37;;;7.37;;
29026;SDS011;16120;48.608;9.092;2023-07-22T06:31:48;103.97;;;8.07;;
29026;SDS011;16120;48.608;9.092;2023-07-22T06:35:44;103.20;;;7.47;;
29026;SDS011;16120;48.608;9.092;2023-07-22T06:39:40;103.17;;;7.37;;
29026;SDS011;16120;48.608;9.092;2023-07-22T06:43:35;103.47;;;8.00;;
29026;SDS011;16120;48.608;9.092;2023-07-22T06:47:31;103.03;;;7.20;;
29026;SDS011;16120;48.608;9.092;2023-07-22T06:51:26;102.93;;;7.40;;
29026;SDS011;16120;48.608;9.092;2023-07-22T06:55:22;102.37;;;7.27;;
29026;SDS011;16120;48.608;9.092;2023-07-22T06:59:17;101.90;;;7.57;;
29026;SDS011;16120;48.608;9.092;2023-07-22T07:03:13;102.27;;;7.33;;
29026;SDS011;16120;48.608;9.092;2023-07-22T07:07:08;101.67;;;7.00;;
29026;SDS011;16120;48.608;9.092;2023-07-22T07:11:04;101.28;;;6.93;;
29026;SDS011;16120;48.608;9.092;2023-07-22T07:15:00;101.47;;;6.97;;
29026;SDS011;16120;48.608;9.092;2023-07-22T07:18:55;101.40;;;6.93;;
29026;SDS011;16120;48.608;9.092;2023-07-22T07:22:50;101.00;;;7.20;;
29026;SDS011;16120;48.608;9.092;2023-07-22T07:26:47;101.10;;;7.20;;
29026;SDS011;16120;48.608;9.092;2023-07-22T07:30:42;100.87;;;7.00;;
29026;SDS011;16120;48.608;9.092;2023-07-22T07:34:37;100.63;;;7.20;;
29026;SDS011;16120;48.608;9.092;2023-07-22T07:38:32;100.57;;;6.80;;
29026;SDS011;16120;48.608;9.092;2023-07-22T07:42:29;100.37;;;6.80;;
29026;SDS011;16120;48.608;9.092;2023-07-22T07:46:25;100.37;;;6.83;;
29026;SDS011;16120;48.608;9.092;2023-07-22T07:50:24;100.10;;;6.77;;
29026;SDS011;16120;48.608;9.092;2023-07-22T07:54:19;100.20;;;7.30;;
29026;SDS011;16120;48.608;9.092;2023-07-22T07:58:15;100.10;;;6.87;;
29026;SDS011;16120;48.608;9.092;2023-07-22T08:02:11;99.87;;;6.70;;
29026;SDS011;16120;48.608;9.092;2023-07-22T08:06:06;99.60;;;6.70;;
29026;SDS011;16120;48.608;9.092;2023-07-22T08:10:01;99.30;;;6.53;;
29026;SDS011;16120;48.608;9.092;2023-07-22T08:13:57;99.27;;;6.70;;
29026;SDS011;16120;48.608;9.092;2023-07-22T08:17:53;98.80;;;6.40;;
29026;SDS011;16120;48.608;9.092;2023-07-22T08:21:48;99.50;;;6.80;;
29026;SDS011;16120;48.608;9.092;2023-07-22T08:25:43;98.60;;;7.03;;
29026;SDS011;16120;48.608;9.092;2023-07-22T08:29:40;98.40;;;6.50;;
29026;SDS011;16120;48.608;9.092;2023-07-22T08:33:37;98.27;;;6.70;;
29026;SDS011;16120;48.608;9.092;2023-07-22T08:37:32;97.70;;;6.50;;
29026;SDS011;16120;48.608;9.092;2023-07-22T08:41:28;98.70;;;6.57;;
29026;SDS011;16120;48.608;9.092;2023-07-22T08:45:26;98.07;;;6.03;;
29026;SDS011;16120;48.608;9.092;2023-07-22T08:49:24;99.03;;;5.93;;
29026;SDS011;16120;48.608;9.092;2023-07-22T08:53:20;99.47;;;6.17;;
29026;SDS011;16120;48.608;9.092;2023-07-22T08:57:16;98.77;;;6.07;;
29026;SDS011;16120;48.608;9.092;2023-07-22T09:01:13;99.27;;;6.20;;
29026;SDS011;16120;48.608;9.092;2023-07-22T09:05:09;97.47;;;6.50;;
29026;SDS011;16120;48.608;9.092;2023-07-22T09:09:04;98.10;;;6.70;;
29026;SDS011;16120;48.608;9.092;2023-07-22T09:13:01;99.20;;;6.03;;
29026;SDS011;16120;48.608;9.092;2023-07-22T09:16:58;98.00;;;6.27;;
29026;SDS011;16120;48.608;9.092;2023-07-22T09:20:53;98.97;;;6.17;;
29026;SDS011;16120;48.608;9.092;2023-07-22T09:24:48;98.37;;;5.90;;
29026;SDS011;16120;48.608;9.092;2023-07-22T09:28:47;98.70;;;6.00;;
29026;SDS011;16120;48.608;9.092;2023-07-22T09:32:44;97.33;;;5.80;;
29026;SDS011;16120;48.608;9.092;2023-07-22T09:36:48;97.40;;;6.00;;
29026;SDS011;16120;48.608;9.092;2023-07-22T09:40:44;98.30;;;5.80;;
29026;SDS011;16120;48.608;9.092;2023-07-22T09:44:39;98.87;;;6.00;;
29026;SDS011;16120;48.608;9.092;2023-07-22T09:48:43;99.03;;;6.00;;
29026;SDS011;16120;48.608;9.092;2023-07-22T09:52:45;98.87;;;5.83;;
29026;SDS011;16120;48.608;9.092;2023-07-22T09:56:44;98.90;;;5.93;;
29026;SDS011;16120;48.608;9.092;2023-07-22T10:00:40;98.30;;;6.10;;
29026;SDS011;16120;48.608;9.092;2023-07-22T10:04:38;97.70;;;6.50;;
29026;SDS011;16120;48.608;9.092;2023-07-22T10:08:34;97.17;;;6.23;;
29026;SDS011;16120;48.608;9.092;2023-07-22T10:12:29;98.10;;;5.77;;
29026;SDS011;16120;48.608;9.092;2023-07-22T10:16:25;97.87;;;5.77;;
29026;SDS011;16120;48.608;9.092;2023-07-22T10:20:22;96.77;;;5.93;;
29026;SDS011;16120;48.608;9.092;2023-07-22T10:24:17;96.77;;;6.20;;
29026;SDS011;16120;48.608;9.092;2023-07-22T10:28:13;97.10;;;6.00;;
29026;SDS011;16120;48.608;9.092;2023-07-22T10:32:08;98.00;;;5.90;;
29026;SDS011;16120;48.608;9.092;2023-07-22T10:36:06;97.80;;;5.90;;
29026;SDS011;16120;48.608;9.092;2023-07-22T10:40:03;97.17;;;5.47;;
29026;SDS011;16120;48.608;9.092;2023-07-22T10:44:11;97.40;;;5.80;;
29026;SDS011;16120;48.608;9.092;2023-07-22T10:48:06;97.10;;;5.60;;
29026;SDS011;16120;48.608;9.092;2023-07-22T10:52:03;96.97;;;5.80;;
29026;SDS011;16120;48.608;9.092;2023-07-22T10:56:02;96.63;;;6.00;;
29026;SDS011;16120;48.608;9.092;2023-07-22T10:59:58;96.30;;;5.90;;
29026;SDS011;16120;48.608;9.092;2023-07-22T11:04:06;97.30;;;5.63;;
29026;SDS011;16120;48.608;9.092;2023-07-22T11:08:04;97.00;;;5.40;;
29026;SDS011;16120;48.608;9.092;2023-07-22T11:12:00;96.70;;;5.47;;
29026;SDS011;16120;48.608;9.092;2023-07-22T11:15:57;95.57;;;5.80;;
29026;SDS011;16120;48.608;9.092;2023-07-22T11:19:53;95.80;;;5.90;;
29026;SDS011;16120;48.608;9.092;2023-07-22T11:23:49;96.20;;;5.80;;
29026;SDS011;16120;48.608;9.092;2023-07-22T11:27:45;96.20;;;5.50;;
29026;SDS011;16120;48.608;9.092;2023-07-22T11:31:40;95.70;;;5.83;;
29026;SDS011;16120;48.608;9.092;2023-07-22T11:35:36;96.30;;;5.90;;
29026;SDS011;16120;48.608;9.092;2023-07-22T11:39:32;96.23;;;5.60;;
29026;SDS011;16120;48.608;9.092;2023-07-22T11:43:28;96.00;;;5.80;;
29026;SDS011;16120;48.608;9.092;2023-07-22T11:47:28;95.97;;;5.77;;
29026;SDS011;16120;48.608;9.092;2023-07-22T11:51:24;96.33;;;6.30;;
29026;SDS011;16120;48.608;9.092;2023-07-22T11:55:23;96.27;;;5.67;;
29026;SDS011;16120;48.608;9.092;2023-07-22T11:59:32;96.93;;;5.40;;
29026;SDS011;16120;48.608;9.092;2023-07-22T12:03:30;96.80;;;5.40;;
29026;SDS011;16120;48.608;9.092;2023-07-22T12:07:25;97.00;;;5.63;;
29026;SDS011;16120;48.608;9.092;2023-07-22T12:11:22;96.70;;;5.17;;
29026;SDS011;16120;48.608;9.092;2023-07-22T12:15:19;96.00;;;5.80;;
29026;SDS011;16120;48.608;9.092;2023-07-22T12:19:14;96.07;;;5.33;;
29026;SDS011;16120;48.608;9.092;2023-07-22T12:23:09;96.73;;;5.50;;
29026;SDS011;16120;48.608;9.092;2023-07-22T12:27:08;96.17;;;6.10;;
29026;SDS011;16120;48.608;9.092;2023-07-22T12:31:03;96.60;;;5.20;;
29026;SDS011;16120;48.608;9.092;2023-07-22T12:34:58;96.57;;;5.72;;
29026;SDS011;16120;48.608;9.092;2023-07-22T12:38:54;95.57;;;5.50;;
29026;SDS011;16120;48.608;9.092;2023-07-22T12:42:50;95.40;;;5.43;;
29026;SDS011;16120;48.608;9.092;2023-07-22T12:46:46;96.20;;;5.60;;
29026;SDS011;16120;48.608;9.092;2023-07-22T12:50:41;96.23;;;5.60;;
29026;SDS011;16120;48.608;9.092;2023-07-22T12:54:36;96.00;;;5.53;;
29026;SDS011;16120;48.608;9.092;2023-07-22T12:58:33;95.57;;;5.30;;
29026;SDS011;16120;48.608;9.092;2023-07-22T13:02:28;96.17;;;5.27;;
29026;SDS011;16120;48.608;9.092;2023-07-22T13:06:23;96.30;;;5.40;;
29026;SDS011;16120;48.608;9.092;2023-07-22T13:10:18;96.27;;;5.60;;
29026;SDS011;16120;48.608;9.092;2023-07-22T13:14:16;95.90;;;5.50;;
29026;SDS011;16120;48.608;9.092;2023-07-22T13:18:11;95.57;;;5.40;;
29026;SDS011;16120;48.608;9.092;2023-07-22T13:22:07;96.07;;;5.50;;
29026;SDS011;16120;48.608;9.092;2023-07-22T13:26:02;96.33;;;5.23;;
29026;SDS011;16120;48.608;9.092;2023-07-22T13:30:02;95.90;;;5.57;;
29026;SDS011;16120;48.608;9.092;2023-07-22T13:33:57;95.63;;;5.53;;
29026;SDS011;16120;48.608;9.092;2023-07-22T13:37:52;96.07;;;5.60;;
29026;SDS011;16120;48.608;9.092;2023-07-22T13:41:48;95.90;;;5.43;;
29026;SDS011;16120;48.608;9.092;2023-07-22T13:45:44;95.50;;;5.33;;
29026;SDS011;16120;48.608;9.092;2023-07-22T13:49:40;95.37;;;5.40;;
29026;SDS011;16120;48.608;9.092;2023-07-22T13:53:35;95.50;;;5.10;;
29026;SDS011;16120;48.608;9.092;2023-07-22T13:57:30;95.73;;;5.20;;
29026;SDS011;16120;48.608;9.092;2023-07-22T14:01:28;95.10;;;5.10;;
29026;SDS011;16120;48.608;9.092;2023-07-22T14:05:24;95.53;;;5.40;;
29026;SDS011;16120;48.608;9.092;2023-07-22T14:09:19;95.83;;;5.20;;
29026;SDS011;16120;48.608;9.092;2023-07-22T14:13:14;96.20;;;5.23;;
29026;SDS011;16120;48.608;9.092;2023-07-22T14:17:11;95.80;;;5.30;;
29026;SDS011;16120;48.608;9.092;2023-07-22T14:21:06;95.70;;;5.47;;
29026;SDS011;16120;48.608;9.092;2023-07-22T14:25:01;95.77;;;5.60;;
29026;SDS011;16120;48.608;9.092;2023-07-22T14:28:56;95.80;;;5.50;;
29026;SDS011;16120;48.608;9.092;2023-07-22T14:32:53;95.80;;;5.30;;
29026;SDS011;16120;48.608;9.092;2023-07-22T14:36:48;95.70;;;5.20;;
29026;SDS011;16120;48.608;9.092;2023-07-22T14:40:44;95.47;;;5.30;;
29026;SDS011;16120;48.608;9.092;2023-07-22T14:44:39;95.50;;;5.00;;
29026;SDS011;16120;48.608;9.092;2023-07-22T14:48:36;95.63;;;5.30;;
29026;SDS011;16120;48.608;9.092;2023-07-22T14:52:31;95.53;;;5.50;;
29026;SDS011;16120;48.608;9.092;2023-07-22T14:56:26;95.17;;;5.20;;
29026;SDS011;16120;48.608;9.092;2023-07-22T15:00:21;95.73;;;5.37;;
29026;SDS011;16120;48.608;9.092;2023-07-22T15:04:18;95.70;;;5.30;;
29026;SDS011;16120;48.608;9.092;2023-07-22T15:08:13;95.73;;;5.33;;
29026;SDS011;16120;48.608;9.092;2023-07-22T15:12:08;95.80;;;5.30;;
29026;SDS011;16120;48.608;9.092;2023-07-22T15:16:04;95.90;;;5.50;;
29026;SDS011;16120;48.608;9.092;2023-07-22T15:20:00;95.80;;;5.20;;
29026;SDS011;16120;48.608;9.092;2023-07-22T15:23:56;95.93;;;5.60;;
29026;SDS011;16120;48.608;9.092;2023-07-22T15:27:51;96.00;;;5.30;;
29026;SDS011;16120;48.608;9.092;2023-07-22T15:31:46;96.10;;;5.37;;
29026;SDS011;16120;48.608;9.092;2023-07-22T15:35:43;95.50;;;5.40;;
29026;SDS011;16120;48.608;9.092;2023-07-22T15:39:38;96.00;;;5.23;;
29026;SDS011;16120;48.608;9.092;2023-07-22T15:43:33;96.40;;;5.50;;
29026;SDS011;16120;48.608;9.092;2023-07-22T15:47:28;96.00;;;5.50;;
29026;SDS011;16120;48.608;9.092;2023-07-22T15:51:25;96.10;;;5.50;;
29026;SDS011;16120;48.608;9.092;2023-07-22T15:55:20;95.93;;;5.20;;
29026;SDS011;16120;48.608;9.092;2023-07-22T15:59:15;96.00;;;5.40;;
29026;SDS011;16120;48.608;9.092;2023-07-22T16:03:11;95.77;;;5.30;;
29026;SDS011;16120;48.608;9.092;2023-07-22T16:07:08;96.13;;;5.30;;
29026;SDS011;16120;48.608;9.092;2023-07-22T16:11:04;96.00;;;5.30;;
29026;SDS011;16120;48.608;9.092;2023-07-22T16:14:59;95.87;;;5.70;;
29026;SDS011;16120;48.608;9.092;2023-07-22T16:18:54;96.00;;;5.50;;
29026;SDS011;16120;48.608;9.092;2023-07-22T16:22:50;96.03;;;5.50;;
29026;SDS011;16120;48.608;9.092;2023-07-22T16:26:46;96.10;;;5.30;;
29026;SDS011;16120;48.608;9.092;2023-07-22T16:30:41;95.30;;;5.40;;
29026;SDS011;16120;48.608;9.092;2023-07-22T16:34:36;96.17;;;5.30;;
29026;SDS011;16120;48.608;9.092;2023-07-22T16:38:33;96.07;;;5.50;;
29026;SDS011;16120;48.608;9.092;2023-07-22T16:42:28;95.37;;;5.63;;
29026;SDS011;16120;48.608;9.092;2023-07-22T16:46:25;95.80;;;5.30;;
29026;SDS011;16120;48.608;9.092;2023-07-22T16:50:20;96.10;;;5.50;;
29026;SDS011;16120;48.608;9.092;2023-07-22T16:54:17;95.90;;;5.40;;
29026;SDS011;16120;48.608;9.092;2023-07-22T16:58:12;96.07;;;5.40;;
29026;SDS011;16120;48.608;9.092;2023-07-22T17:02:07;95.63;;;5.50;;
29026;SDS011;16120;48.608;9.092;2023-07-22T17:06:05;95.73;;;5.33;;
29026;SDS011;16120;48.608;9.092;2023-07-22T17:10:02;95.70;;;5.27;;
29026;SDS011;16120;48.608;9.092;2023-07-22T17:13:57;96.00;;;5.20;;
29026;SDS011;16120;48.608;9.092;2023-07-22T17:17:52;95.90;;;5.40;;
29026;SDS011;16120;48.608;9.092;2023-07-22T17:21:48;95.80;;;5.37;;
29026;SDS011;16120;48.608;9.092;2023-07-22T17:25:44;95.27;;;5.27;;
29026;SDS011;16120;48.608;9.092;2023-07-22T17:29:39;95.80;;;5.30;;
29026;SDS011;16120;48.608;9.092;2023-07-22T17:33:35;96.20;;;5.30;;
29026;SDS011;16120;48.608;9.092;2023-07-22T17:37:30;95.77;;;5.30;;
29026;SDS011;16120;48.608;9.092;2023-07-22T17:41:29;95.40;;;5.33;;
29026;SDS011;16120;48.608;9.092;2023-07-22T17:45:25;96.10;;;5.40;;
29026;SDS011;16120;48.608;9.092;2023-07-22T17:49:20;95.90;;;5.30;;
29026;SDS011;16120;48.608;9.092;2023-07-22T17:53:15;96.00;;;5.23;;
29026;SDS011;16120;48.608;9.092;2023-07-22T17:57:12;96.50;;;5.20;;
29026;SDS011;16120;48.608;9.092;2023-07-22T18:01:07;96.20;;;5.20;;
29026;SDS011;16120;48.608;9.092;2023-07-22T18:05:03;96.20;;;5.30;;
29026;SDS011;16120;48.608;9.092;2023-07-22T18:08:58;96.50;;;5.40;;
29026;SDS011;16120;48.608;9.092;2023-07-22T18:12:55;96.45;;;5.18;;
29026;SDS011;16120;48.608;9.092;2023-07-22T18:16:50;96.77;;;5.10;;
29026;SDS011;16120;48.608;9.092;2023-07-22T18:20:45;96.33;;;5.20;;
29026;SDS011;16120;48.608;9.092;2023-07-22T18:24:40;96.60;;;5.23;;
29026;SDS011;16120;48.608;9.092;2023-07-22T18:28:37;96.70;;;5.30;;
29026;SDS011;16120;48.608;9.092;2023-07-22T18:32:32;96.77;;;5.50;;
29026;SDS011;16120;48.608;9.092;2023-07-22T18:36:27;96.90;;;5.37;;
29026;SDS011;16120;48.608;9.092;2023-07-22T18:40:23;96.57;;;5.23;;
29026;SDS011;16120;48.608;9.092;2023-07-22T18:44:19;96.90;;;5.40;;
29026;SDS011;16120;48.608;9.092;2023-07-22T18:48:14;97.10;;;5.23;;
29026;SDS011;16120;48.608;9.092;2023-07-22T18:52:10;97.17;;;5.27;;
29026;SDS011;16120;48.608;9.092;2023-07-22T18:56:05;96.97;;;5.43;;
29026;SDS011;16120;48.608;9.092;2023-07-22T19:00:02;96.50;;;5.20;;
29026;SDS011;16120;48.608;9.092;2023-07-22T19:03:57;97.23;;;5.43;;
29026;SDS011;16120;48.608;9.092;2023-07-22T19:07:52;97.17;;;5.30;;
29026;SDS011;16120;48.608;9.092;2023-07-22T19:11:48;97.43;;;5.23;;
29026;SDS011;16120;48.608;9.092;2023-07-22T19:15:46;98.00;;;5.43;;
29026;SDS011;16120;48.608;9.092;2023-07-22T19:19:42;99.07;;;5.37;;
29026;SDS011;16120;48.608;9.092;2023-07-22T19:23:37;98.20;;;5.40;;
29026;SDS011;16120;48.608;9.092;2023-07-22T19:27:32;98.67;;;5.47;;
29026;SDS011;16120;48.608;9.092;2023-07-22T19:31:29;98.80;;;5.53;;
29026;SDS011;16120;48.608;9.092;2023-07-22T19:35:24;99.30;;;5.30;;
29026;SDS011;16120;48.608;9.092;2023-07-22T19:39:19;99.30;;;5.50;;
29026;SDS011;16120;48.608;9.092;2023-07-22T19:43:14;99.47;;;5.37;;
29026;SDS011;16120;48.608;9.092;2023-07-22T19:47:11;99.40;;;5.40;;
29026;SDS011;16120;48.608;9.092;2023-07-22T19:51:07;99.70;;;5.47;;
29026;SDS011;16120;48.608;9.092;2023-07-22T19:55:02;99.77;;;5.73;;
29026;SDS011;16120;48.608;9.092;2023-07-22T19:58:57;100.10;;;5.70;;
29026;SDS011;16120;48.608;9.092;2023-07-22T20:02:54;100.57;;;5.73;;
29026;SDS011;16120;48.608;9.092;2023-07-22T20:06:49;100.40;;;5.67;;
29026;SDS011;16120;48.608;9.092;2023-07-22T20:10:46;100.63;;;6.37;;
29026;SDS011;16120;48.608;9.092;2023-07-22T20:14:41;101.00;;;6.40;;
29026;SDS011;16120;48.608;9.092;2023-07-22T20:18:38;101.13;;;5.90;;
29026;SDS011;16120;48.608;9.092;2023-07-22T20:22:33;100.97;;;5.80;;
29026;SDS011;16120;48.608;9.092;2023-07-22T20:26:28;101.20;;;6.10;;
29026;SDS011;16120;48.608;9.092;2023-07-22T20:30:24;101.63;;;6.23;;
29026;SDS011;16120;48.608;9.092;2023-07-22T20:34:21;101.47;;;6.10;;
29026;SDS011;16120;48.608;9.092;2023-07-22T20:38:16;101.93;;;6.70;;
29026;SDS011;16120;48.608;9.092;2023-07-22T20:42:11;101.97;;;6.83;;
29026;SDS011;16120;48.608;9.092;2023-07-22T20:46:06;102.30;;;6.77;;
29026;SDS011;16120;48.608;9.092;2023-07-22T20:50:03;102.67;;;6.70;;
29026;SDS011;16120;48.608;9.092;2023-07-22T20:53:59;102.63;;;6.57;;
29026;SDS011;16120;48.608;9.092;2023-07-22T20:57:54;103.05;;;6.78;;
29026;SDS011;16120;48.608;9.092;2023-07-22T21:01:49;102.97;;;6.90;;
29026;SDS011;16120;48.608;9.092;2023-07-22T21:05:52;103.60;;;7.10;;
29026;SDS011;16120;48.608;9.092;2023-07-22T21:09:51;103.57;;;7.57;;
29026;SDS011;16120;48.608;9.092;2023-07-22T21:13:46;103.57;;;7.50;;
29026;SDS011;16120;48.608;9.092;2023-07-22T21:17:41;103.87;;;7.33;;
29026;SDS011;16120;48.608;9.092;2023-07-22T21:21:38;103.77;;;7.03;;
29026;SDS011;16120;48.608;9.092;2023-07-22T21:25:34;103.87;;;7.87;;
29026;SDS011;16120;48.608;9.092;2023-07-22T21:29:30;103.87;;;7.40;;
29026;SDS011;16120;48.608;9.092;2023-07-22T21:33:25;104.60;;;7.70;;
29026;SDS011;16120;48.608;9.092;2023-07-22T21:37:21;104.53;;;7.80;;
29026;SDS011;16120;48.608;9.092;2023-07-22T21:41:17;104.43;;;7.17;;
29026;SDS011;16120;48.608;9.092;2023-07-22T21:45:12;104.07;;;7.00;;
29026;SDS011;16120;48.608;9.092;2023-07-22T21:49:07;104.47;;;7.10;;
29026;SDS011;16120;48.608;9.092;2023-07-22T21:53:04;104.13;;;7.53;;
29026;SDS011;16120;48.608;9.092;2023-07-22T21:56:59;104.60;;;7.30;;
29026;SDS011;16120;48.608;9.092;2023-07-22T22:00:54;104.93;;;7.30;;
29026;SDS011;16120;48.608;9.092;2023-07-22T22:04:49;104.30;;;7.40;;
29026;SDS011;16120;48.608;9.092;2023-07-22T22:08:46;105.37;;;7.80;;
29026;SDS011;16120;48.608;9.092;2023-07-22T22:12:41;105.10;;;7.70;;
29026;SDS011;16120;48.608;9.092;2023-07-22T22:16:36;105.80;;;7.60;;
29026;SDS011;16120;48.608;9.092;2023-07-22T22:20:31;105.57;;;8.13;;
29026;SDS011;16120;48.608;9.092;2023-07-22T22:24:28;105.77;;;7.93;;
29026;SDS011;16120;48.608;9.092;2023-07-22T22:28:23;105.53;;;7.70;;
29026;SDS011;16120;48.608;9.092;2023-07-22T22:32:18;105.00;;;7.67;;
29026;SDS011;16120;48.608;9.092;2023-07-22T22:36:14;105.47;;;7.60;;
29026;SDS011;16120;48.608;9.092;2023-07-22T22:40:10;105.47;;;7.37;;
29026;SDS011;16120;48.608;9.092;2023-07-22T22:44:06;105.13;;;7.57;;
29026;SDS011;16120;48.608;9.092;2023-07-22T22:48:01;105.37;;;7.90;;
29026;SDS011;16120;48.608;9.092;2023-07-22T22:51:56;105.83;;;7.53;;
29026;SDS011;16120;48.608;9.092;2023-07-22T22:55:53;105.47;;;7.50;;
29026;SDS011;16120;48.608;9.092;2023-07-22T22:59:48;106.10;;;8.23;;
29026;SDS011;16120;48.608;9.092;2023-07-22T23:03:43;105.40;;;7.60;;
29026;SDS011;16120;48.608;9.092;2023-07-22T23:07:38;105.10;;;7.50;;
29026;SDS011;16120;48.608;9.092;2023-07-22T23:11:35;105.70;;;7.37;;